createdAt,value
2023-01-29T00:01:56.833Z,42.46
2023-01-29T00:05:10.029Z,42.56
2023-01-29T00:08:21.201Z,42.65
2023-01-29T00:11:25.358Z,42.66
2023-01-29T00:14:28.617Z,42.70
2023-01-29T00:17:31.511Z,42.60
2023-01-29T00:20:34.826Z,42.66
2023-01-29T00:23:39.011Z,42.71
2023-01-29T00:26:42.512Z,42.88
2023-01-29T00:30:02.468Z,42.96
2023-01-29T00:33:06.410Z,42.84
2023-01-29T00:36:11.775Z,43.07
2023-01-29T00:39:16.210Z,43.03
2023-01-29T00:42:35.676Z,43.03
2023-01-29T00:45:39.854Z,43.00
2023-01-29T00:48:42.685Z,43.07
2023-01-29T00:52:05.997Z,43.19
2023-01-29T00:55:11.683Z,43.16
2023-01-29T00:58:15.632Z,43.25
2023-01-29T01:01:38.522Z,43.29
2023-01-29T01:04:40.798Z,43.30
2023-01-29T01:07:43.766Z,43.34
2023-01-29T01:10:47.023Z,43.36
2023-01-29T01:13:49.910Z,43.40
2023-01-29T01:16:55.609Z,43.47
2023-01-29T01:19:58.554Z,43.41
2023-01-29T01:23:01.494Z,43.51
2023-01-29T01:26:10.449Z,43.51
2023-01-29T01:29:13.528Z,43.51
2023-01-29T01:32:16.948Z,43.57
2023-01-29T01:35:20.075Z,43.61
2023-01-29T01:38:22.911Z,43.56
2023-01-29T01:41:27.430Z,43.60
2023-01-29T01:44:54.015Z,43.61
2023-01-29T01:48:00.873Z,43.67
2023-01-29T01:51:06.898Z,43.65
2023-01-29T01:54:13.665Z,43.78
2023-01-29T01:57:25.035Z,43.72
2023-01-29T02:00:28.924Z,43.55
2023-01-29T02:03:51.544Z,43.73
2023-01-29T02:07:14.547Z,43.81
2023-01-29T02:10:18.428Z,43.67
2023-01-29T02:13:23.060Z,43.73
2023-01-29T02:16:25.896Z,43.81
2023-01-29T02:19:41.070Z,43.73
2023-01-29T02:23:03.636Z,43.85
2023-01-29T02:26:26.193Z,43.78
2023-01-29T02:29:36.641Z,43.86
2023-01-29T02:32:54.746Z,43.98
2023-01-29T02:36:05.714Z,43.80
2023-01-29T02:39:17.141Z,43.80
2023-01-29T02:42:28.268Z,43.83
2023-01-29T02:45:37.571Z,43.89
2023-01-29T02:48:44.226Z,43.86
2023-01-29T02:51:52.606Z,43.92
2023-01-29T02:55:02.887Z,43.89
2023-01-29T02:58:12.337Z,43.88
2023-01-29T03:01:22.323Z,43.90
2023-01-29T03:04:30.846Z,43.83
2023-01-29T03:07:46.119Z,44.00
2023-01-29T03:11:05.272Z,43.92
2023-01-29T03:14:14.389Z,43.91
2023-01-29T03:17:21.235Z,43.96
2023-01-29T03:20:29.447Z,44.04
2023-01-29T03:23:53.710Z,44.01
2023-01-29T03:27:17.472Z,44.05
2023-01-29T03:30:40.629Z,44.10
2023-01-29T03:34:06.305Z,43.94
2023-01-29T03:37:15.233Z,44.12
2023-01-29T03:40:18.639Z,44.03
2023-01-29T03:43:32.257Z,44.02
2023-01-29T03:46:41.241Z,44.06
2023-01-29T03:49:58.641Z,44.18
2023-01-29T03:53:09.613Z,44.10
2023-01-29T03:56:33.943Z,44.03
2023-01-29T03:59:43.042Z,44.00
2023-01-29T04:03:22.524Z,43.91
2023-01-29T04:06:31.197Z,44.01
2023-01-29T04:09:43.289Z,44.06
2023-01-29T04:12:51.302Z,44.00
2023-01-29T04:15:59.381Z,44.16
2023-01-29T04:19:22.846Z,44.11
2023-01-29T04:22:32.900Z,44.19
2023-01-29T04:25:45.879Z,44.14
2023-01-29T04:29:00.233Z,44.14
2023-01-29T04:32:11.258Z,44.10
2023-01-29T04:35:27.993Z,44.23
2023-01-29T04:38:44.066Z,44.30
2023-01-29T04:41:53.754Z,44.21
2023-01-29T04:45:03.100Z,44.29
2023-01-29T04:48:16.679Z,44.22
2023-01-29T04:51:26.818Z,44.20
2023-01-29T04:54:42.548Z,44.22
2023-01-29T04:57:51.928Z,44.34
2023-01-29T05:00:55.947Z,44.36
2023-01-29T05:04:01.906Z,44.41
2023-01-29T05:07:07.863Z,44.35
2023-01-29T05:10:16.116Z,44.43
2023-01-29T05:13:21.329Z,44.43
2023-01-29T05:16:29.027Z,44.31
2023-01-29T05:19:32.177Z,44.47
2023-01-29T05:22:40.436Z,44.45
2023-01-29T05:25:45.589Z,44.55
2023-01-29T05:28:47.531Z,44.55
2023-01-29T05:31:50.374Z,44.38
2023-01-29T05:34:53.357Z,44.41
2023-01-29T05:37:56.938Z,44.45
2023-01-29T05:41:01.177Z,44.50
2023-01-29T05:44:04.025Z,44.46
2023-01-29T05:47:06.823Z,44.55
2023-01-29T05:50:11.000Z,44.56
2023-01-29T05:53:13.866Z,44.49
2023-01-29T05:56:18.150Z,44.42
2023-01-29T05:59:21.122Z,44.35
2023-01-29T06:02:23.981Z,44.43
2023-01-29T06:05:26.945Z,44.26
2023-01-29T06:08:29.719Z,44.35
2023-01-29T06:11:34.296Z,44.23
2023-01-29T06:14:37.234Z,44.37
2023-01-29T06:17:40.030Z,44.30
2023-01-29T06:20:42.887Z,44.37
2023-01-29T06:23:45.661Z,44.32
2023-01-29T06:26:49.995Z,44.42
2023-01-29T06:29:52.866Z,44.37
2023-01-29T06:32:57.065Z,44.27
2023-01-29T06:36:00.774Z,44.36
2023-01-29T06:39:04.141Z,44.34
2023-01-29T06:42:08.617Z,44.44
2023-01-29T06:45:12.384Z,44.56
2023-01-29T06:48:15.213Z,44.59
2023-01-29T06:51:18.259Z,44.52
2023-01-29T06:54:21.115Z,44.54
2023-01-29T06:57:25.514Z,44.46
2023-01-29T07:00:30.574Z,44.67
2023-01-29T07:03:34.326Z,44.61
2023-01-29T07:06:37.321Z,44.52
2023-01-29T07:09:41.511Z,43.71
2023-01-29T07:12:45.815Z,43.02
2023-01-29T07:15:48.586Z,41.52
2023-01-29T07:18:51.486Z,41.73
2023-01-29T07:21:54.361Z,41.46
2023-01-29T07:24:57.265Z,41.62
2023-01-29T07:28:02.776Z,41.68
2023-01-29T07:31:06.538Z,41.68
2023-01-29T07:34:10.134Z,41.85
2023-01-29T07:37:13.161Z,41.76
2023-01-29T07:40:16.246Z,41.99
2023-01-29T07:43:20.954Z,42.08
2023-01-29T07:46:23.859Z,41.95
2023-01-29T07:49:26.707Z,41.93
2023-01-29T07:52:30.746Z,41.85
2023-01-29T07:55:34.469Z,41.88
2023-01-29T07:58:38.739Z,41.88
2023-01-29T08:01:41.603Z,42.02
2023-01-29T08:04:44.479Z,42.01
2023-01-29T08:08:00.868Z,42.17
2023-01-29T08:11:08.375Z,42.35
2023-01-29T08:14:12.622Z,42.59
2023-01-29T08:17:15.618Z,42.67
2023-01-29T08:20:19.154Z,42.64
2023-01-29T08:23:22.249Z,42.89
2023-01-29T08:26:26.262Z,42.98
2023-01-29T08:29:31.500Z,43.07
2023-01-29T08:32:34.489Z,43.04
2023-01-29T08:35:37.478Z,43.29
2023-01-29T08:38:40.963Z,43.27
2023-01-29T08:41:43.765Z,43.35
2023-01-29T08:44:47.948Z,43.46
2023-01-29T08:47:51.298Z,43.48
2023-01-29T08:50:54.094Z,43.48
2023-01-29T08:53:56.983Z,43.50
2023-01-29T08:57:00.106Z,43.60
2023-01-29T09:00:05.281Z,43.62
2023-01-29T09:03:08.433Z,43.66
2023-01-29T09:06:13.268Z,43.70
2023-01-29T09:09:16.307Z,43.69
2023-01-29T09:12:19.119Z,43.68
2023-01-29T09:15:23.538Z,43.73
2023-01-29T09:18:26.399Z,43.80
2023-01-29T09:21:29.217Z,43.75
2023-01-29T09:24:32.697Z,43.83
2023-01-29T09:27:35.641Z,43.83
2023-01-29T09:30:39.926Z,43.96
2023-01-29T09:33:42.852Z,44.02
2023-01-29T09:36:46.301Z,44.14
2023-01-29T09:39:49.086Z,44.04
2023-01-29T09:42:58.865Z,44.08
2023-01-29T09:46:06.797Z,44.07
2023-01-29T09:49:16.935Z,44.11
2023-01-29T09:52:24.925Z,43.89
2023-01-29T09:55:29.911Z,44.15
2023-01-29T09:58:37.053Z,44.11
2023-01-29T10:01:52.875Z,44.21
2023-01-29T10:05:19.688Z,44.18
2023-01-29T10:08:46.408Z,44.13
2023-01-29T10:11:59.962Z,44.14
2023-01-29T10:15:18.067Z,44.27
2023-01-29T10:18:42.616Z,44.14
2023-01-29T10:21:59.641Z,44.37
2023-01-29T10:25:04.913Z,44.22
2023-01-29T10:28:17.522Z,44.25
2023-01-29T10:31:25.531Z,44.18
2023-01-29T10:34:34.455Z,44.14
2023-01-29T10:37:40.585Z,44.27
2023-01-29T10:40:50.586Z,44.30
2023-01-29T10:44:06.082Z,44.29
2023-01-29T10:47:22.339Z,44.36
2023-01-29T10:50:40.398Z,44.35
2023-01-29T10:53:58.383Z,44.31
2023-01-29T10:57:12.130Z,44.45
2023-01-29T11:00:20.393Z,44.39
2023-01-29T11:03:28.330Z,44.48
2023-01-29T11:06:34.907Z,44.45
2023-01-29T11:09:44.077Z,44.50
2023-01-29T11:12:47.472Z,44.37
2023-01-29T11:15:53.740Z,44.48
2023-01-29T11:18:59.449Z,44.49
2023-01-29T11:22:04.388Z,44.45
2023-01-29T11:25:16.952Z,44.47
2023-01-29T11:28:36.699Z,44.38
2023-01-29T11:31:40.920Z,44.45
2023-01-29T11:35:04.147Z,44.37
2023-01-29T11:38:20.936Z,44.54
2023-01-29T11:41:25.447Z,44.58
2023-01-29T11:44:33.950Z,44.57
2023-01-29T11:47:36.935Z,44.61
2023-01-29T11:50:39.817Z,44.62
2023-01-29T11:53:47.716Z,44.56
2023-01-29T11:56:52.438Z,44.57
2023-01-29T11:59:57.987Z,44.53
2023-01-29T12:03:07.813Z,44.55
2023-01-29T12:06:19.538Z,44.59
2023-01-29T12:09:27.320Z,44.56
2023-01-29T12:12:42.565Z,44.53
2023-01-29T12:15:45.772Z,44.54
2023-01-29T12:18:54.830Z,44.61
2023-01-29T12:22:04.102Z,44.56
2023-01-29T12:25:14.990Z,44.66
2023-01-29T12:28:31.555Z,44.69
2023-01-29T12:31:39.708Z,44.66
2023-01-29T12:34:48.637Z,44.61
2023-01-29T12:37:57.557Z,44.55
2023-01-29T12:41:08.967Z,44.71
2023-01-29T12:44:18.061Z,44.59
2023-01-29T12:47:26.552Z,44.68
2023-01-29T12:50:33.410Z,44.59
2023-01-29T12:53:42.562Z,44.61
2023-01-29T12:56:49.769Z,44.79
2023-01-29T12:59:57.698Z,44.62
2023-01-29T13:03:05.518Z,44.64
2023-01-29T13:06:11.411Z,44.82
2023-01-29T13:09:21.111Z,44.83
2023-01-29T13:12:26.432Z,44.78
2023-01-29T13:15:34.423Z,44.77
2023-01-29T13:18:48.515Z,44.73
2023-01-29T13:21:53.516Z,44.71
2023-01-29T13:25:04.616Z,44.81
2023-01-29T13:28:18.336Z,44.79
2023-01-29T13:31:31.509Z,44.73
2023-01-29T13:34:37.758Z,44.69
2023-01-29T13:37:48.388Z,44.84
2023-01-29T13:40:52.269Z,44.86
2023-01-29T13:43:57.051Z,44.75
2023-01-29T13:47:02.117Z,44.87
2023-01-29T13:50:07.944Z,44.76
2023-01-29T13:53:23.886Z,44.82
2023-01-29T13:56:31.751Z,44.91
2023-01-29T13:59:53.065Z,44.90
2023-01-29T14:03:35.903Z,44.79
2023-01-29T14:06:53.519Z,44.76
2023-01-29T14:10:11.563Z,44.83
2023-01-29T14:13:35.328Z,44.69
2023-01-29T14:16:39.702Z,44.71
2023-01-29T14:19:49.828Z,44.79
2023-01-29T14:22:57.199Z,44.71
2023-01-29T14:26:01.794Z,44.83
2023-01-29T14:29:09.275Z,44.91
2023-01-29T14:32:20.325Z,44.51
2023-01-29T14:35:26.413Z,44.82
2023-01-29T14:38:30.636Z,44.80
2023-01-29T14:41:35.716Z,44.79
2023-01-29T14:44:50.180Z,44.80
2023-01-29T14:48:18.003Z,44.87
2023-01-29T14:51:24.141Z,44.77
2023-01-29T14:54:30.574Z,44.79
2023-01-29T14:57:34.388Z,44.82
2023-01-29T15:00:40.092Z,44.85
2023-01-29T15:03:48.891Z,44.90
2023-01-29T15:06:56.335Z,44.84
2023-01-29T15:10:24.313Z,44.96
2023-01-29T15:13:36.793Z,44.83
2023-01-29T15:16:49.608Z,44.86
2023-01-29T15:19:53.813Z,44.96
2023-01-29T15:22:56.785Z,45.00
2023-01-29T15:26:03.235Z,44.91
2023-01-29T15:29:07.187Z,44.81
2023-01-29T15:32:16.484Z,44.92
2023-01-29T15:35:29.605Z,44.88
2023-01-29T15:38:32.556Z,44.84
2023-01-29T15:41:35.419Z,44.91
2023-01-29T15:44:38.266Z,44.90
2023-01-29T15:47:41.297Z,44.96
2023-01-29T15:50:46.719Z,44.82
2023-01-29T15:53:51.867Z,45.01
2023-01-29T15:56:55.670Z,45.08
2023-01-29T16:00:00.118Z,45.00
2023-01-29T16:03:15.304Z,45.00
2023-01-29T16:06:20.391Z,44.92
2023-01-29T16:09:24.805Z,44.91
2023-01-29T16:12:28.586Z,44.85
2023-01-29T16:15:33.977Z,44.90
2023-01-29T16:18:47.752Z,44.94
2023-01-29T16:22:01.408Z,44.90
2023-01-29T16:25:05.741Z,44.76
2023-01-29T16:28:11.017Z,44.83
2023-01-29T16:31:21.441Z,44.92
2023-01-29T16:34:27.635Z,44.72
2023-01-29T16:37:35.724Z,44.90
2023-01-29T16:40:40.793Z,44.93
2023-01-29T16:43:51.089Z,44.96
2023-01-29T16:46:55.110Z,44.89
2023-01-29T16:49:59.369Z,44.90
2023-01-29T16:53:11.989Z,44.97
2023-01-29T16:56:15.671Z,44.83
2023-01-29T16:59:26.799Z,44.84
2023-01-29T17:02:33.285Z,44.77
2023-01-29T17:05:38.622Z,44.91
2023-01-29T17:08:44.557Z,44.83
2023-01-29T17:11:50.306Z,45.00
2023-01-29T17:14:54.895Z,44.99
2023-01-29T17:17:57.841Z,45.04
2023-01-29T17:21:00.670Z,45.10
2023-01-29T17:24:05.124Z,45.08
2023-01-29T17:27:08.045Z,45.14
2023-01-29T17:30:16.216Z,45.00
2023-01-29T17:33:22.579Z,45.05
2023-01-29T17:36:26.971Z,45.03
2023-01-29T17:39:31.916Z,45.00
2023-01-29T17:42:34.834Z,44.96
2023-01-29T17:45:37.698Z,44.89
2023-01-29T17:48:40.577Z,45.05
2023-01-29T17:51:43.671Z,45.05
2023-01-29T17:54:47.834Z,45.07
2023-01-29T17:57:50.720Z,44.95
2023-01-29T18:00:54.570Z,45.07
2023-01-29T18:03:57.583Z,45.10
2023-01-29T18:07:00.493Z,45.14
2023-01-29T18:10:04.958Z,45.14
2023-01-29T18:13:07.793Z,45.13
2023-01-29T18:16:10.666Z,45.04
2023-01-29T18:19:21.563Z,44.94
2023-01-29T18:22:24.565Z,45.08
2023-01-29T18:25:28.836Z,44.87
2023-01-29T18:28:31.883Z,45.03
2023-01-29T18:31:34.719Z,44.94
2023-01-29T18:34:37.557Z,45.08
2023-01-29T18:37:40.496Z,45.00
2023-01-29T18:40:44.771Z,45.09
2023-01-29T18:43:47.718Z,45.05
2023-01-29T18:46:50.542Z,45.10
2023-01-29T18:49:55.082Z,45.09
2023-01-29T18:52:58.111Z,45.15
2023-01-29T18:56:04.852Z,45.00
2023-01-29T18:59:07.733Z,44.98
2023-01-29T19:02:14.422Z,45.01
2023-01-29T19:05:21.395Z,44.94
2023-01-29T19:08:24.418Z,45.06
2023-01-29T19:11:28.760Z,45.08
2023-01-29T19:14:31.726Z,45.05
2023-01-29T19:17:34.812Z,45.11
2023-01-29T19:20:41.179Z,45.10
2023-01-29T19:23:44.903Z,45.12
2023-01-29T19:26:49.427Z,45.16
2023-01-29T19:29:52.348Z,45.02
2023-01-29T19:32:55.254Z,45.19
2023-01-29T19:35:58.290Z,45.19
2023-01-29T19:39:01.131Z,45.23
2023-01-29T19:42:05.731Z,45.22
2023-01-29T19:45:09.923Z,45.23
2023-01-29T19:48:13.631Z,45.43
2023-01-29T19:51:16.561Z,45.30
2023-01-29T19:54:20.403Z,45.42
2023-01-29T19:57:24.570Z,45.31
2023-01-29T20:00:27.452Z,45.47
2023-01-29T20:03:31.763Z,45.41
2023-01-29T20:06:34.664Z,45.53
2023-01-29T20:09:37.705Z,45.52
2023-01-29T20:12:41.939Z,45.49
2023-01-29T20:15:46.611Z,45.54
2023-01-29T20:18:49.845Z,45.56
2023-01-29T20:21:52.842Z,45.55
2023-01-29T20:24:56.196Z,45.45
2023-01-29T20:28:00.481Z,45.45
2023-01-29T20:31:03.885Z,45.47
2023-01-29T20:34:06.788Z,45.47
2023-01-29T20:37:09.792Z,45.47
2023-01-29T20:40:15.477Z,45.48
2023-01-29T20:43:19.926Z,45.48
2023-01-29T20:46:22.797Z,45.46
2023-01-29T20:49:26.209Z,45.41
2023-01-29T20:52:29.242Z,45.48
2023-01-29T20:55:32.621Z,45.56
2023-01-29T20:58:37.585Z,45.45
2023-01-29T21:01:40.453Z,45.55
2023-01-29T21:04:44.404Z,45.49
2023-01-29T21:07:47.306Z,45.43
2023-01-29T21:10:50.585Z,45.43
2023-01-29T21:13:57.847Z,45.48
2023-01-29T21:17:01.127Z,45.50
2023-01-29T21:20:04.918Z,45.49
2023-01-29T21:23:07.922Z,45.58
2023-01-29T21:26:10.863Z,45.52
2023-01-29T21:29:15.629Z,45.58
2023-01-29T21:32:19.113Z,45.52
2023-01-29T21:35:22.019Z,45.58
2023-01-29T21:38:24.993Z,45.53
2023-01-29T21:41:41.907Z,45.54
2023-01-29T21:44:46.175Z,45.58
2023-01-29T21:47:49.187Z,45.56
2023-01-29T21:50:52.432Z,45.64
2023-01-29T21:53:55.313Z,45.60
2023-01-29T21:56:58.240Z,45.60
2023-01-29T22:00:03.732Z,45.67
2023-01-29T22:03:07.595Z,45.71
2023-01-29T22:06:10.422Z,45.73
2023-01-29T22:09:13.699Z,45.86
2023-01-29T22:12:16.923Z,45.71
2023-01-29T22:15:23.471Z,45.65
2023-01-29T22:18:26.782Z,45.75
2023-01-29T22:21:29.635Z,45.84
2023-01-29T22:24:32.586Z,45.80
2023-01-29T22:27:35.580Z,45.89
2023-01-29T22:30:39.856Z,45.72
2023-01-29T22:33:43.914Z,45.76
2023-01-29T22:36:46.794Z,45.74
2023-01-29T22:39:49.661Z,45.73
2023-01-29T22:42:52.448Z,45.70
2023-01-29T22:45:57.432Z,45.72
2023-01-29T22:49:00.389Z,45.80
2023-01-29T22:52:11.942Z,45.68
2023-01-29T22:55:14.785Z,45.65
2023-01-29T22:58:17.618Z,45.76
2023-01-29T23:01:23.461Z,45.74
2023-01-29T23:04:26.480Z,45.73
2023-01-29T23:07:29.324Z,45.73
2023-01-29T23:10:32.183Z,45.76
2023-01-29T23:13:35.104Z,45.78
2023-01-29T23:16:39.256Z,45.62
2023-01-29T23:19:42.033Z,45.61
2023-01-29T23:22:45.013Z,45.64
2023-01-29T23:26:05.522Z,45.67
2023-01-29T23:29:08.374Z,45.64
2023-01-29T23:32:14.455Z,45.62
2023-01-29T23:35:17.421Z,45.60
2023-01-29T23:38:20.326Z,45.63
2023-01-29T23:41:23.479Z,45.71
2023-01-29T23:44:26.466Z,45.68
2023-01-29T23:47:30.727Z,45.52
2023-01-29T23:50:33.640Z,45.71
2023-01-29T23:53:36.462Z,45.73
2023-01-29T23:56:39.266Z,45.60
2023-01-29T23:59:42.166Z,45.67
